createdAt,value
2018-11-05T00:00:41.476Z,87.93
2018-11-05T00:03:10.390Z,88.20
2018-11-05T00:05:39.338Z,88.08
2018-11-05T00:08:08.378Z,87.81
2018-11-05T00:10:37.447Z,87.98
2018-11-05T00:13:06.503Z,87.48
2018-11-05T00:15:35.565Z,87.56
2018-11-05T00:18:04.826Z,87.24
2018-11-05T00:20:33.684Z,87.77
2018-11-05T00:23:02.967Z,87.28
2018-11-05T00:25:31.855Z,87.63
2018-11-05T00:28:00.846Z,87.60
2018-11-05T00:30:29.995Z,87.30
2018-11-05T00:32:59.607Z,87.43
2018-11-05T00:35:28.707Z,87.17
2018-11-05T00:37:58.238Z,87.41
2018-11-05T00:40:27.464Z,86.86
2018-11-05T00:42:56.438Z,87.13
2018-11-05T00:45:25.551Z,87.12
2018-11-05T00:47:54.746Z,86.54
2018-11-05T00:50:24.294Z,86.94
2018-11-05T00:52:53.103Z,87.18
2018-11-05T00:55:22.205Z,87.27
2018-11-05T00:57:51.187Z,86.92
2018-11-05T01:00:20.361Z,87.54
2018-11-05T01:02:49.630Z,87.34
2018-11-05T01:05:18.531Z,87.61
2018-11-05T01:07:47.646Z,87.52
2018-11-05T01:10:17.101Z,87.82
2018-11-05T01:12:46.153Z,88.14
2018-11-05T01:15:16.260Z,87.97
2018-11-05T01:17:45.319Z,88.21
2018-11-05T01:20:15.314Z,87.78
2018-11-05T01:22:44.459Z,88.00
2018-11-05T01:25:13.525Z,88.54
2018-11-05T01:27:42.565Z,88.53
2018-11-05T01:30:13.153Z,88.36
2018-11-05T01:32:42.365Z,88.65
2018-11-05T01:35:12.337Z,88.45
2018-11-05T01:37:41.382Z,88.49
2018-11-05T01:40:12.584Z,88.43
2018-11-05T01:42:41.541Z,88.67
2018-11-05T01:45:12.051Z,88.99
2018-11-05T01:47:42.379Z,89.05
2018-11-05T01:50:13.032Z,88.76
2018-11-05T01:52:42.642Z,88.79
2018-11-05T01:55:11.792Z,88.47
2018-11-05T01:57:41.136Z,88.52
2018-11-05T02:00:12.802Z,88.66
2018-11-05T02:02:41.630Z,89.02
2018-11-05T02:05:11.231Z,88.80
2018-11-05T02:07:40.663Z,88.81
2018-11-05T02:10:12.308Z,89.21
2018-11-05T02:12:41.358Z,89.46
2018-11-05T02:15:10.471Z,88.91
2018-11-05T02:17:40.370Z,89.18
2018-11-05T02:20:09.355Z,89.14
2018-11-05T02:22:38.761Z,89.54
2018-11-05T02:25:08.919Z,89.75
2018-11-05T02:27:38.803Z,89.29
2018-11-05T02:30:13.176Z,89.47
2018-11-05T02:32:42.042Z,89.87
2018-11-05T02:35:12.560Z,90.43
2018-11-05T02:37:42.106Z,89.29
2018-11-05T02:40:15.684Z,89.29
2018-11-05T02:42:45.083Z,89.91
2018-11-05T02:45:15.037Z,90.00
2018-11-05T02:47:44.193Z,89.69
2018-11-05T02:50:14.116Z,89.36
2018-11-05T02:52:43.910Z,89.71
2018-11-05T02:55:12.781Z,89.39
2018-11-05T02:57:41.769Z,89.31
2018-11-05T03:00:14.671Z,88.81
2018-11-05T03:02:43.706Z,88.79
2018-11-05T03:05:14.307Z,88.90
2018-11-05T03:07:44.226Z,89.41
2018-11-05T03:10:13.469Z,89.13
2018-11-05T03:12:43.045Z,88.89
2018-11-05T03:15:13.440Z,89.37
2018-11-05T03:17:42.558Z,89.02
2018-11-05T03:20:12.836Z,89.06
2018-11-05T03:22:42.388Z,89.63
2018-11-05T03:25:11.153Z,89.62
2018-11-05T03:27:40.331Z,89.28
2018-11-05T03:30:10.768Z,89.91
2018-11-05T03:32:39.810Z,89.79
2018-11-05T03:35:10.511Z,90.14
2018-11-05T03:37:40.121Z,90.43
2018-11-05T03:40:09.701Z,90.07
2018-11-05T03:42:39.232Z,89.70
2018-11-05T03:45:09.211Z,90.33
2018-11-05T03:47:38.249Z,90.73
2018-11-05T03:50:09.359Z,90.27
2018-11-05T03:52:38.402Z,90.35
2018-11-05T03:55:08.664Z,90.35
2018-11-05T03:57:37.897Z,90.30
2018-11-05T04:00:07.861Z,90.55
2018-11-05T04:02:36.684Z,90.34
2018-11-05T04:05:05.985Z,90.53
2018-11-05T04:07:34.949Z,90.34
2018-11-05T04:10:04.320Z,90.81
2018-11-05T04:12:33.530Z,90.80
2018-11-05T04:15:02.351Z,90.24
2018-11-05T04:17:31.558Z,89.90
2018-11-05T04:20:00.740Z,89.25
2018-11-05T04:22:29.674Z,89.12
2018-11-05T04:24:58.703Z,89.32
2018-11-05T04:27:27.685Z,88.46
2018-11-05T04:29:59.710Z,88.35
2018-11-05T04:32:28.883Z,88.80
2018-11-05T04:34:57.701Z,88.71
2018-11-05T04:37:26.672Z,88.32
2018-11-05T04:39:55.882Z,88.40
2018-11-05T04:42:25.277Z,88.11
2018-11-05T04:44:54.575Z,88.30
2018-11-05T04:47:23.698Z,87.45
2018-11-05T04:49:52.600Z,87.44
2018-11-05T04:52:27.609Z,87.68
2018-11-05T04:54:56.974Z,87.67
2018-11-05T04:57:25.927Z,87.95
2018-11-05T04:59:54.949Z,88.02
2018-11-05T05:02:24.020Z,88.04
2018-11-05T05:04:53.079Z,88.06
2018-11-05T05:07:22.218Z,88.51
2018-11-05T05:09:51.299Z,88.81
2018-11-05T05:12:20.590Z,88.55
2018-11-05T05:14:49.592Z,88.57
2018-11-05T05:17:18.464Z,88.42
2018-11-05T05:19:47.563Z,89.06
2018-11-05T05:22:16.796Z,89.84
2018-11-05T05:24:45.867Z,88.92
2018-11-05T05:27:15.048Z,88.69
2018-11-05T05:29:44.224Z,88.87
2018-11-05T05:32:12.941Z,89.16
2018-11-05T05:34:42.353Z,89.35
2018-11-05T05:37:11.351Z,89.70
2018-11-05T05:39:40.410Z,89.28
2018-11-05T05:43:12.037Z,89.58
2018-11-05T05:45:40.904Z,89.81
2018-11-05T05:48:09.918Z,89.86
2018-11-05T05:50:38.886Z,90.19
2018-11-05T05:53:07.910Z,89.91
2018-11-05T05:55:37.118Z,90.45
2018-11-05T05:58:06.485Z,90.50
2018-11-05T06:00:35.601Z,89.83
2018-11-05T06:03:04.550Z,90.49
2018-11-05T06:05:33.543Z,89.85
2018-11-05T06:08:02.545Z,90.37
2018-11-05T06:10:31.349Z,90.28
2018-11-05T06:13:00.525Z,89.39
2018-11-05T06:15:29.481Z,89.61
2018-11-05T06:17:58.849Z,90.00
2018-11-05T06:20:28.160Z,89.57
2018-11-05T06:22:57.197Z,89.50
2018-11-05T06:25:26.171Z,90.06
2018-11-05T06:27:55.118Z,89.95
2018-11-05T06:30:24.214Z,90.15
2018-11-05T06:32:53.391Z,89.36
2018-11-05T06:35:22.501Z,89.15
2018-11-05T06:37:51.281Z,89.81
2018-11-05T06:40:21.281Z,88.77
2018-11-05T06:42:50.572Z,88.62
2018-11-05T06:45:20.729Z,88.47
2018-11-05T06:47:49.958Z,89.04
2018-11-05T06:50:23.487Z,89.28
2018-11-05T06:52:52.650Z,88.82
2018-11-05T06:55:22.247Z,89.46
2018-11-05T06:57:51.110Z,89.21
2018-11-05T07:00:21.478Z,88.46
2018-11-05T07:02:50.669Z,88.11
2018-11-05T07:05:19.884Z,88.19
2018-11-05T07:07:49.106Z,88.30
2018-11-05T07:10:18.768Z,88.62
2018-11-05T07:12:47.753Z,89.18
2018-11-05T07:15:17.943Z,88.81
2018-11-05T07:17:47.777Z,88.95
2018-11-05T07:20:17.932Z,88.02
2018-11-05T07:22:47.856Z,88.41
2018-11-05T07:25:17.065Z,88.17
2018-11-05T07:27:46.263Z,88.41
2018-11-05T07:30:17.307Z,88.15
2018-11-05T07:32:47.065Z,87.98
2018-11-05T07:35:16.369Z,87.54
2018-11-05T07:37:45.485Z,87.48
2018-11-05T07:40:15.778Z,87.32
2018-11-05T07:42:44.774Z,86.97
2018-11-05T07:45:17.012Z,86.50
2018-11-05T07:47:46.741Z,86.29
2018-11-05T07:50:17.046Z,86.39
2018-11-05T07:52:46.076Z,86.04
2018-11-05T07:55:16.264Z,86.14
2018-11-05T07:57:46.124Z,85.77
2018-11-05T08:00:21.358Z,85.90
2018-11-05T08:02:51.934Z,85.64
2018-11-05T08:05:21.864Z,85.00
2018-11-05T08:07:52.499Z,84.65
2018-11-05T08:10:21.441Z,84.50
2018-11-05T08:12:50.423Z,84.48
2018-11-05T08:15:20.382Z,83.63
2018-11-05T08:17:50.324Z,83.41
2018-11-05T08:20:19.426Z,83.64
2018-11-05T08:22:48.618Z,82.96
2018-11-05T08:25:18.199Z,83.54
2018-11-05T08:27:47.353Z,82.70
2018-11-05T08:30:24.249Z,82.47
2018-11-05T08:32:53.433Z,82.28
2018-11-05T08:35:22.704Z,82.06
2018-11-05T08:37:52.345Z,81.25
2018-11-05T08:40:23.422Z,81.71
2018-11-05T08:42:53.216Z,81.72
2018-11-05T08:45:23.587Z,81.31
2018-11-05T08:47:52.708Z,81.41
2018-11-05T08:50:22.745Z,81.22
2018-11-05T08:52:51.730Z,81.33
2018-11-05T08:55:21.950Z,81.28
2018-11-05T08:57:51.246Z,81.39
2018-11-05T09:00:25.760Z,81.55
2018-11-05T09:02:55.315Z,80.87
2018-11-05T09:05:24.490Z,80.76
2018-11-05T09:07:54.241Z,80.82
2018-11-05T09:10:23.606Z,80.64
2018-11-05T09:12:52.582Z,80.65
2018-11-05T09:15:22.617Z,80.48
2018-11-05T09:17:51.970Z,80.04
2018-11-05T09:20:21.184Z,80.29
2018-11-05T09:22:50.932Z,80.28
2018-11-05T09:25:20.176Z,79.93
2018-11-05T09:27:49.380Z,79.53
2018-11-05T09:30:20.709Z,79.88
2018-11-05T09:32:49.818Z,78.74
2018-11-05T09:35:18.852Z,78.76
2018-11-05T09:37:47.770Z,78.79
2018-11-05T09:40:19.471Z,79.08
2018-11-05T09:42:48.800Z,79.47
2018-11-05T09:45:20.768Z,78.74
2018-11-05T09:47:50.109Z,79.25
2018-11-05T09:50:19.928Z,78.89
2018-11-05T09:52:49.174Z,79.46
2018-11-05T09:55:18.519Z,78.91
2018-11-05T09:57:47.799Z,78.30
2018-11-05T10:00:18.614Z,78.53
2018-11-05T10:02:52.997Z,78.51
2018-11-05T10:05:21.954Z,79.14
2018-11-05T10:07:51.099Z,78.86
2018-11-05T10:10:20.274Z,78.22
2018-11-05T10:12:49.417Z,78.05
2018-11-05T10:15:18.924Z,78.06
2018-11-05T10:17:47.980Z,77.47
2018-11-05T10:20:18.531Z,77.31
2018-11-05T10:22:48.132Z,77.37
2018-11-05T10:25:17.320Z,77.34
2018-11-05T10:27:47.093Z,76.97
2018-11-05T10:30:20.125Z,77.14
2018-11-05T10:32:49.196Z,76.80
2018-11-05T10:35:18.404Z,77.39
2018-11-05T10:37:47.600Z,76.88
2018-11-05T10:40:18.826Z,76.81
2018-11-05T10:42:48.227Z,75.83
2018-11-05T10:45:18.782Z,75.63
2018-11-05T10:47:47.810Z,76.39
2018-11-05T10:50:17.773Z,75.88
2018-11-05T10:52:48.076Z,74.99
2018-11-05T10:55:17.099Z,74.70
2018-11-05T10:57:46.228Z,75.47
2018-11-05T11:00:24.455Z,74.35
2018-11-05T11:02:58.629Z,73.79
2018-11-05T11:05:28.451Z,73.77
2018-11-05T11:07:58.570Z,73.54
2018-11-05T11:10:28.740Z,73.69
2018-11-05T11:12:58.138Z,74.06
2018-11-05T11:15:27.241Z,67.71
2018-11-05T11:17:57.695Z,67.06
2018-11-05T11:20:27.191Z,67.44
2018-11-05T11:22:56.157Z,68.02
2018-11-05T11:25:25.003Z,60.99
2018-11-05T11:27:54.356Z,58.00
2018-11-05T11:30:23.420Z,54.29
2018-11-05T11:32:53.078Z,50.92
2018-11-05T11:35:22.066Z,49.23
2018-11-05T11:37:50.962Z,50.97
2018-11-05T11:40:21.591Z,50.23
2018-11-05T11:42:51.040Z,50.73
2018-11-05T11:45:21.169Z,45.41
2018-11-05T11:47:50.564Z,47.60
2018-11-05T11:50:20.130Z,46.22
2018-11-05T11:52:49.751Z,44.71
2018-11-05T11:55:20.919Z,45.57
2018-11-05T11:57:49.903Z,48.63
2018-11-05T12:00:20.693Z,49.29
2018-11-05T12:02:50.106Z,49.81
2018-11-05T12:05:19.349Z,50.55
2018-11-05T12:07:48.249Z,51.24
2018-11-05T12:10:21.287Z,52.02
2018-11-05T12:12:50.137Z,54.31
2018-11-05T12:15:19.754Z,53.22
2018-11-05T12:17:49.928Z,54.42
2018-11-05T12:20:20.135Z,54.60
2018-11-05T12:22:49.618Z,55.77
2018-11-05T12:25:18.595Z,58.72
2018-11-05T12:27:47.525Z,60.41
2018-11-05T12:30:18.759Z,62.00
2018-11-05T12:32:48.646Z,63.63
2018-11-05T12:35:17.626Z,64.12
2018-11-05T12:37:47.499Z,65.96
2018-11-05T12:40:17.537Z,66.34
2018-11-05T12:42:47.876Z,67.07
2018-11-05T12:45:17.075Z,67.68
2018-11-05T12:47:45.994Z,68.11
2018-11-05T12:50:17.421Z,68.72
2018-11-05T12:52:47.045Z,69.63
2018-11-05T12:55:16.100Z,69.67
2018-11-05T12:57:45.297Z,70.20
2018-11-05T13:00:17.793Z,70.32
2018-11-05T13:02:52.096Z,70.57
2018-11-05T13:05:21.036Z,70.91
2018-11-05T13:07:50.103Z,71.46
2018-11-05T13:10:18.927Z,72.09
2018-11-05T13:12:47.801Z,71.87
2018-11-05T13:15:16.920Z,71.81
2018-11-05T13:17:45.805Z,72.09
2018-11-05T13:20:16.065Z,72.40
2018-11-05T13:22:45.622Z,72.59
2018-11-05T13:25:14.473Z,72.58
2018-11-05T13:27:44.595Z,73.47
2018-11-05T13:30:14.363Z,73.44
2018-11-05T13:32:43.805Z,73.37
2018-11-05T13:35:18.956Z,74.13
2018-11-05T13:37:48.386Z,74.41
2018-11-05T13:40:18.142Z,74.90
2018-11-05T13:42:47.811Z,74.83
2018-11-05T13:45:17.389Z,75.11
2018-11-05T13:47:47.439Z,75.26
2018-11-05T13:50:16.467Z,75.70
2018-11-05T13:52:45.148Z,75.86
2018-11-05T13:55:15.694Z,75.95
2018-11-05T13:57:45.935Z,76.05
2018-11-05T14:00:17.300Z,76.40
2018-11-05T14:02:46.362Z,77.05
2018-11-05T14:05:15.498Z,77.06
2018-11-05T14:07:44.447Z,77.16
2018-11-05T14:10:21.252Z,77.56
2018-11-05T14:12:50.870Z,77.36
2018-11-05T14:15:20.409Z,77.85
2018-11-05T14:17:49.518Z,77.49
2018-11-05T14:20:19.855Z,78.14
2018-11-05T14:22:49.012Z,77.67
2018-11-05T14:25:19.263Z,77.91
2018-11-05T14:27:50.015Z,78.08
2018-11-05T14:30:19.124Z,78.20
2018-11-05T14:32:49.409Z,77.91
2018-11-05T14:35:18.363Z,78.27
2018-11-05T14:37:47.770Z,78.21
2018-11-05T14:40:17.657Z,78.12
2018-11-05T14:42:46.736Z,79.06
2018-11-05T14:45:16.717Z,78.67
2018-11-05T14:47:46.349Z,78.68
2018-11-05T14:50:17.159Z,78.95
2018-11-05T14:52:46.274Z,79.45
2018-11-05T14:55:16.926Z,79.19
2018-11-05T14:57:46.703Z,79.63
2018-11-05T15:00:17.774Z,79.82
2018-11-05T15:02:47.685Z,79.94
2018-11-05T15:05:16.957Z,80.09
2018-11-05T15:07:47.105Z,79.44
2018-11-05T15:10:18.436Z,80.23
2018-11-05T15:12:47.447Z,80.20
2018-11-05T15:15:17.355Z,80.36
2018-11-05T15:17:47.100Z,80.31
2018-11-05T15:20:18.294Z,80.54
2018-11-05T15:22:47.206Z,81.15
2018-11-05T15:25:16.325Z,80.64
2018-11-05T15:27:45.420Z,80.82
2018-11-05T15:30:16.624Z,81.04
2018-11-05T15:32:45.812Z,80.63
2018-11-05T15:35:14.958Z,80.70
2018-11-05T15:37:44.688Z,80.51
2018-11-05T15:40:15.079Z,81.11
2018-11-05T15:42:44.149Z,81.06
2018-11-05T15:45:14.464Z,81.42
2018-11-05T15:47:43.804Z,81.43
2018-11-05T15:50:15.309Z,82.04
2018-11-05T15:52:44.532Z,81.43
2018-11-05T15:55:13.399Z,82.07
2018-11-05T15:57:56.767Z,82.55
2018-11-05T16:00:26.227Z,82.46
2018-11-05T16:02:57.499Z,82.74
2018-11-05T16:05:26.411Z,82.79
2018-11-05T16:07:55.370Z,82.61
2018-11-05T16:10:24.383Z,82.41
2018-11-05T16:12:53.390Z,82.16
2018-11-05T16:15:22.193Z,82.18
2018-11-05T16:17:51.114Z,82.40
2018-11-05T16:20:21.385Z,83.21
2018-11-05T16:22:51.112Z,82.84
2018-11-05T16:25:20.356Z,83.10
2018-11-05T16:27:49.452Z,83.04
2018-11-05T16:30:19.565Z,83.00
2018-11-05T16:32:49.054Z,83.37
2018-11-05T16:35:18.113Z,83.35
2018-11-05T16:37:47.237Z,83.70
2018-11-05T16:40:17.417Z,83.33
2018-11-05T16:42:47.579Z,83.55
2018-11-05T16:45:16.716Z,83.73
2018-11-05T16:47:45.784Z,84.07
2018-11-05T16:50:20.335Z,84.71
2018-11-05T16:52:49.475Z,84.75
2018-11-05T16:55:18.752Z,85.33
2018-11-05T16:57:48.138Z,85.27
2018-11-05T17:00:17.214Z,85.04
2018-11-05T17:02:47.205Z,84.42
2018-11-05T17:05:15.890Z,84.40
2018-11-05T17:07:45.080Z,84.68
2018-11-05T17:10:15.179Z,84.78
2018-11-05T17:12:44.465Z,84.86
2018-11-05T17:15:14.709Z,84.39
2018-11-05T17:17:44.390Z,85.34
2018-11-05T17:20:15.241Z,85.41
2018-11-05T17:22:44.570Z,85.01
2018-11-05T17:25:13.973Z,85.84
2018-11-05T17:27:43.352Z,85.30
2018-11-05T17:30:16.744Z,84.45
2018-11-05T17:32:45.688Z,84.49
2018-11-05T17:35:15.041Z,84.49
2018-11-05T17:37:44.271Z,84.69
2018-11-05T17:40:14.605Z,85.33
2018-11-05T17:42:43.799Z,84.94
2018-11-05T17:45:17.139Z,86.16
2018-11-05T17:47:46.128Z,85.89
2018-11-05T17:50:16.333Z,85.67
2018-11-05T17:52:45.495Z,85.37
2018-11-05T17:55:15.026Z,85.48
2018-11-05T17:57:45.087Z,84.90
2018-11-05T18:00:16.658Z,86.04
2018-11-05T18:02:45.523Z,85.47
2018-11-05T18:05:14.709Z,85.15
2018-11-05T18:07:43.692Z,85.67
2018-11-05T18:10:12.420Z,85.81
2018-11-05T18:12:41.281Z,85.89
2018-11-05T18:15:11.246Z,86.04
2018-11-05T18:17:41.245Z,85.72
2018-11-05T18:20:11.474Z,85.76
2018-11-05T18:22:40.433Z,85.45
2018-11-05T18:25:11.986Z,85.72
2018-11-05T18:27:40.887Z,85.76
2018-11-05T18:30:10.605Z,85.87
2018-11-05T18:32:39.366Z,85.57
2018-11-05T18:35:09.819Z,85.48
2018-11-05T18:37:38.831Z,85.85
2018-11-05T18:40:09.641Z,86.07
2018-11-05T18:42:38.872Z,85.66
2018-11-05T18:45:08.384Z,85.20
2018-11-05T18:47:37.120Z,85.49
2018-11-05T18:50:08.251Z,85.55
2018-11-05T18:52:37.353Z,85.65
2018-11-05T18:55:07.939Z,86.09
2018-11-05T18:57:37.002Z,85.95
2018-11-05T19:00:09.669Z,85.89
2018-11-05T19:02:38.510Z,85.88
2018-11-05T19:05:07.240Z,85.97
2018-11-05T19:07:35.958Z,86.06
2018-11-05T19:10:05.182Z,85.83
2018-11-05T19:12:34.119Z,85.90
2018-11-05T19:15:02.942Z,85.50
2018-11-05T19:17:31.586Z,85.51
2018-11-05T19:20:00.544Z,85.56
2018-11-05T19:22:29.378Z,85.63
2018-11-05T19:24:58.225Z,85.68
2018-11-05T19:27:27.510Z,85.16
2018-11-05T19:29:56.854Z,85.23
2018-11-05T19:32:25.724Z,85.15
2018-11-05T19:34:54.501Z,85.25
2018-11-05T19:37:23.312Z,85.44
2018-11-05T19:39:54.611Z,85.17
2018-11-05T19:42:21.085Z,85.36
2018-11-05T19:44:49.854Z,85.56
2018-11-05T19:47:18.810Z,85.64
2018-11-05T19:49:47.629Z,85.78
2018-11-05T19:52:16.441Z,85.89
2018-11-05T19:54:45.267Z,85.90
2018-11-05T19:57:14.080Z,85.97
2018-11-05T19:59:42.879Z,85.97
2018-11-05T20:02:11.952Z,86.41
2018-11-05T20:04:40.806Z,86.06
2018-11-05T20:07:10.174Z,85.80
2018-11-05T20:09:38.946Z,85.94
2018-11-05T20:12:07.866Z,86.15
2018-11-05T20:14:36.846Z,86.19
2018-11-05T20:17:06.030Z,85.98
2018-11-05T20:19:35.049Z,86.04
2018-11-05T20:22:04.366Z,86.28
2018-11-05T20:24:33.231Z,86.56
2018-11-05T20:27:02.341Z,87.22
2018-11-05T20:29:31.263Z,87.21
2018-11-05T20:32:00.511Z,87.30
2018-11-05T20:34:29.393Z,87.51
2018-11-05T20:36:58.093Z,87.60
2018-11-05T20:39:27.008Z,87.87
2018-11-05T20:41:56.005Z,87.81
2018-11-05T20:44:24.893Z,87.81
2018-11-05T20:46:53.755Z,87.96
2018-11-05T20:49:22.884Z,88.67
2018-11-05T20:51:51.758Z,88.47
2018-11-05T20:54:20.581Z,88.27
2018-11-05T20:56:49.435Z,88.29
2018-11-05T20:59:18.124Z,88.31
2018-11-05T21:01:46.940Z,88.23
2018-11-05T21:04:15.988Z,88.37
2018-11-05T21:06:44.781Z,88.89
2018-11-05T21:09:13.567Z,88.63
2018-11-05T21:11:42.404Z,88.48
2018-11-05T21:14:11.163Z,88.52
2018-11-05T21:16:40.059Z,88.67
2018-11-05T21:19:08.843Z,88.85
2018-11-05T21:21:37.667Z,88.95
2018-11-05T21:24:06.288Z,88.84
2018-11-05T21:26:35.223Z,88.99
2018-11-05T21:29:03.961Z,88.57
2018-11-05T21:31:32.961Z,88.28
2018-11-05T21:34:01.656Z,88.32
2018-11-05T21:36:30.577Z,88.53
2018-11-05T21:38:59.266Z,88.39
2018-11-05T21:41:28.120Z,88.28
2018-11-05T21:43:57.060Z,88.67
2018-11-05T21:46:25.881Z,88.49
2018-11-05T21:48:54.602Z,88.44
2018-11-05T21:51:23.427Z,88.61
2018-11-05T21:53:52.359Z,88.38
2018-11-05T21:56:21.031Z,88.72
2018-11-05T21:58:49.811Z,88.76
2018-11-05T22:01:18.541Z,88.65
2018-11-05T22:03:47.417Z,88.48
2018-11-05T22:06:16.513Z,88.30
2018-11-05T22:08:45.238Z,88.47
2018-11-05T22:11:13.985Z,88.49
2018-11-05T22:13:42.818Z,88.69
2018-11-05T22:16:11.659Z,88.56
2018-11-05T22:18:40.753Z,88.60
2018-11-05T22:21:09.540Z,88.19
2018-11-05T22:23:38.581Z,88.25
2018-11-05T22:26:08.369Z,88.03
2018-11-05T22:28:37.433Z,87.97
2018-11-05T22:31:06.701Z,88.04
2018-11-05T22:33:35.714Z,87.56
2018-11-05T22:36:04.447Z,87.20
2018-11-05T22:38:33.586Z,86.88
2018-11-05T22:41:02.474Z,86.87
2018-11-05T22:43:31.604Z,86.42
2018-11-05T22:46:00.540Z,86.29
2018-11-05T22:48:29.905Z,86.67
2018-11-05T22:50:58.734Z,87.04
2018-11-05T22:53:28.042Z,87.04
2018-11-05T22:55:57.142Z,86.86
2018-11-05T22:58:26.044Z,86.82
2018-11-05T23:00:59.949Z,86.70
2018-11-05T23:03:29.902Z,86.64
2018-11-05T23:05:59.101Z,87.28
2018-11-05T23:08:27.899Z,88.02
2018-11-05T23:10:56.973Z,88.14
2018-11-05T23:13:25.746Z,87.91
2018-11-05T23:15:54.731Z,88.27
2018-11-05T23:18:23.543Z,88.74
2018-11-05T23:20:52.886Z,88.44
2018-11-05T23:23:21.871Z,88.44
2018-11-05T23:25:50.583Z,88.86
2018-11-05T23:28:19.490Z,89.16
2018-11-05T23:30:48.334Z,88.80
2018-11-05T23:33:17.163Z,88.54
2018-11-05T23:35:46.145Z,88.31
2018-11-05T23:38:14.853Z,88.40
2018-11-05T23:40:43.884Z,88.46
2018-11-05T23:43:12.668Z,89.10
2018-11-05T23:45:41.691Z,89.22
2018-11-05T23:48:11.113Z,88.38
2018-11-05T23:50:40.294Z,88.68
2018-11-05T23:53:09.171Z,88.50
2018-11-05T23:55:38.119Z,89.17
2018-11-05T23:58:07.381Z,89.28
